sensor_id;sensor_type;location;lat;lon;timestamp;temperature;humidity
59556;DHT22;45374;52.746;6.304;2023-05-15T00:00:39;10.10;99.90
59556;DHT22;45374;52.746;6.304;2023-05-15T00:03:05;10.00;99.90
59556;DHT22;45374;52.746;6.304;2023-05-15T00:05:32;10.00;99.90
59556;DHT22;45374;52.746;6.304;2023-05-15T00:07:57;10.00;99.90
59556;DHT22;45374;52.746;6.304;2023-05-15T00:10:23;10.00;99.90
59556;DHT22;45374;52.746;6.304;2023-05-15T00:12:48;9.90;99.90
59556;DHT22;45374;52.746;6.304;2023-05-15T00:15:14;9.80;99.90
59556;DHT22;45374;52.746;6.304;2023-05-15T00:17:40;9.80;99.90
59556;DHT22;45374;52.746;6.304;2023-05-15T00:20:06;9.80;99.90
59556;DHT22;45374;52.746;6.304;2023-05-15T00:22:34;9.80;99.90
59556;DHT22;45374;52.746;6.304;2023-05-15T00:24:59;9.70;99.90
59556;DHT22;45374;52.746;6.304;2023-05-15T00:27:25;9.70;99.90
59556;DHT22;45374;52.746;6.304;2023-05-15T00:29:51;9.70;99.90
59556;DHT22;45374;52.746;6.304;2023-05-15T00:32:16;9.70;99.90
59556;DHT22;45374;52.746;6.304;2023-05-15T00:34:42;9.70;99.90
59556;DHT22;45374;52.746;6.304;2023-05-15T00:37:07;9.70;99.90
59556;DHT22;45374;52.746;6.304;2023-05-15T00:39:33;9.70;99.90
59556;DHT22;45374;52.746;6.304;2023-05-15T00:41:59;9.70;99.90
59556;DHT22;45374;52.746;6.304;2023-05-15T00:44:25;9.70;99.90
59556;DHT22;45374;52.746;6.304;2023-05-15T00:46:53;9.60;99.90
59556;DHT22;45374;52.746;6.304;2023-05-15T00:49:20;9.70;99.90
59556;DHT22;45374;52.746;6.304;2023-05-15T00:51:46;9.60;99.90
59556;DHT22;45374;52.746;6.304;2023-05-15T00:54:12;9.60;99.90
59556;DHT22;45374;52.746;6.304;2023-05-15T00:56:38;9.60;99.90
59556;DHT22;45374;52.746;6.304;2023-05-15T00:59:05;9.60;99.90
59556;DHT22;45374;52.746;6.304;2023-05-15T01:01:32;9.60;99.90
59556;DHT22;45374;52.746;6.304;2023-05-15T01:04:02;9.60;99.90
59556;DHT22;45374;52.746;6.304;2023-05-15T01:06:31;9.50;99.90
59556;DHT22;45374;52.746;6.304;2023-05-15T01:08:59;9.60;99.90
59556;DHT22;45374;52.746;6.304;2023-05-15T01:11:28;9.50;99.90
59556;DHT22;45374;52.746;6.304;2023-05-15T01:14:03;9.60;99.90
59556;DHT22;45374;52.746;6.304;2023-05-15T01:16:30;9.60;99.90
59556;DHT22;45374;52.746;6.304;2023-05-15T01:18:55;9.60;99.90
59556;DHT22;45374;52.746;6.304;2023-05-15T01:32:05;9.40;99.90
59556;DHT22;45374;52.746;6.304;2023-05-15T01:34:41;9.50;99.90
59556;DHT22;45374;52.746;6.304;2023-05-15T01:37:09;9.40;99.90
59556;DHT22;45374;52.746;6.304;2023-05-15T01:39:38;9.50;99.90
59556;DHT22;45374;52.746;6.304;2023-05-15T01:42:11;9.40;99.90
59556;DHT22;45374;52.746;6.304;2023-05-15T01:44:41;9.40;99.90
59556;DHT22;45374;52.746;6.304;2023-05-15T01:47:14;9.40;99.90
59556;DHT22;45374;52.746;6.304;2023-05-15T01:49:44;9.40;99.90
59556;DHT22;45374;52.746;6.304;2023-05-15T01:52:34;9.30;99.90
59556;DHT22;45374;52.746;6.304;2023-05-15T01:55:04;9.40;99.90
59556;DHT22;45374;52.746;6.304;2023-05-15T01:57:32;9.30;99.90
59556;DHT22;45374;52.746;6.304;2023-05-15T01:59:58;9.30;99.90
59556;DHT22;45374;52.746;6.304;2023-05-15T02:02:26;9.30;99.90
59556;DHT22;45374;52.746;6.304;2023-05-15T02:04:54;9.40;99.90
59556;DHT22;45374;52.746;6.304;2023-05-15T02:07:20;9.40;99.90
59556;DHT22;45374;52.746;6.304;2023-05-15T02:09:46;9.40;99.90
59556;DHT22;45374;52.746;6.304;2023-05-15T02:12:14;9.30;99.90
59556;DHT22;45374;52.746;6.304;2023-05-15T02:14:40;9.30;99.90
59556;DHT22;45374;52.746;6.304;2023-05-15T02:17:07;9.30;99.90
59556;DHT22;45374;52.746;6.304;2023-05-15T02:19:33;9.30;99.90
59556;DHT22;45374;52.746;6.304;2023-05-15T02:21:58;9.30;99.90
59556;DHT22;45374;52.746;6.304;2023-05-15T02:24:24;9.30;99.90
59556;DHT22;45374;52.746;6.304;2023-05-15T02:27:07;9.30;99.90
59556;DHT22;45374;52.746;6.304;2023-05-15T02:29:51;9.30;99.90
59556;DHT22;45374;52.746;6.304;2023-05-15T02:32:34;9.30;99.90
59556;DHT22;45374;52.746;6.304;2023-05-15T02:35:29;9.20;99.90
59556;DHT22;45374;52.746;6.304;2023-05-15T02:37:57;9.30;99.90
59556;DHT22;45374;52.746;6.304;2023-05-15T02:40:25;9.30;99.90
59556;DHT22;45374;52.746;6.304;2023-05-15T02:42:53;9.20;99.90
59556;DHT22;45374;52.746;6.304;2023-05-15T02:45:19;9.20;99.90
59556;DHT22;45374;52.746;6.304;2023-05-15T02:47:46;9.30;99.90
59556;DHT22;45374;52.746;6.304;2023-05-15T02:50:15;9.20;99.90
59556;DHT22;45374;52.746;6.304;2023-05-15T02:52:40;9.30;99.90
59556;DHT22;45374;52.746;6.304;2023-05-15T02:55:06;9.30;99.90
59556;DHT22;45374;52.746;6.304;2023-05-15T02:57:32;9.30;99.90
59556;DHT22;45374;52.746;6.304;2023-05-15T02:59:58;9.30;99.90
59556;DHT22;45374;52.746;6.304;2023-05-15T03:02:24;9.30;99.90
59556;DHT22;45374;52.746;6.304;2023-05-15T03:04:49;9.20;99.90
59556;DHT22;45374;52.746;6.304;2023-05-15T03:07:15;9.30;99.90
59556;DHT22;45374;52.746;6.304;2023-05-15T03:09:41;9.30;99.90
59556;DHT22;45374;52.746;6.304;2023-05-15T03:12:07;9.20;99.90
59556;DHT22;45374;52.746;6.304;2023-05-15T03:14:33;9.20;99.90
59556;DHT22;45374;52.746;6.304;2023-05-15T03:16:59;9.10;99.90
59556;DHT22;45374;52.746;6.304;2023-05-15T03:19:24;9.10;99.90
59556;DHT22;45374;52.746;6.304;2023-05-15T03:21:50;9.10;99.90
59556;DHT22;45374;52.746;6.304;2023-05-15T03:24:16;9.10;99.90
59556;DHT22;45374;52.746;6.304;2023-05-15T03:26:41;9.10;99.90
59556;DHT22;45374;52.746;6.304;2023-05-15T03:29:08;9.10;99.90
59556;DHT22;45374;52.746;6.304;2023-05-15T03:31:33;9.00;99.90
59556;DHT22;45374;52.746;6.304;2023-05-15T03:33:59;9.00;99.90
59556;DHT22;45374;52.746;6.304;2023-05-15T03:36:25;9.00;99.90
59556;DHT22;45374;52.746;6.304;2023-05-15T03:38:50;9.10;99.90
59556;DHT22;45374;52.746;6.304;2023-05-15T03:41:16;9.10;99.90
59556;DHT22;45374;52.746;6.304;2023-05-15T03:43:41;9.20;99.90
59556;DHT22;45374;52.746;6.304;2023-05-15T03:46:07;9.00;99.90
59556;DHT22;45374;52.746;6.304;2023-05-15T03:48:33;9.00;99.90
59556;DHT22;45374;52.746;6.304;2023-05-15T03:50:59;8.90;99.90
59556;DHT22;45374;52.746;6.304;2023-05-15T03:53:24;8.80;99.90
59556;DHT22;45374;52.746;6.304;2023-05-15T03:55:50;9.00;99.90
59556;DHT22;45374;52.746;6.304;2023-05-15T03:58:16;8.90;99.90
59556;DHT22;45374;52.746;6.304;2023-05-15T04:00:41;8.90;99.90
59556;DHT22;45374;52.746;6.304;2023-05-15T04:03:07;8.80;99.90
59556;DHT22;45374;52.746;6.304;2023-05-15T04:05:33;8.80;99.90
59556;DHT22;45374;52.746;6.304;2023-05-15T04:07:58;8.90;99.90
59556;DHT22;45374;52.746;6.304;2023-05-15T04:10:24;8.90;99.90
59556;DHT22;45374;52.746;6.304;2023-05-15T04:12:49;8.90;99.90
59556;DHT22;45374;52.746;6.304;2023-05-15T04:15:21;8.90;99.90
59556;DHT22;45374;52.746;6.304;2023-05-15T04:17:48;8.90;99.90
59556;DHT22;45374;52.746;6.304;2023-05-15T04:20:16;8.90;99.90
59556;DHT22;45374;52.746;6.304;2023-05-15T04:22:42;8.90;99.90
59556;DHT22;45374;52.746;6.304;2023-05-15T04:25:09;8.90;99.90
59556;DHT22;45374;52.746;6.304;2023-05-15T04:27:36;9.00;99.90
59556;DHT22;45374;52.746;6.304;2023-05-15T04:30:03;8.90;99.90
59556;DHT22;45374;52.746;6.304;2023-05-15T04:32:29;8.90;99.90
59556;DHT22;45374;52.746;6.304;2023-05-15T04:34:55;9.00;99.90
59556;DHT22;45374;52.746;6.304;2023-05-15T04:37:20;9.00;99.90
59556;DHT22;45374;52.746;6.304;2023-05-15T04:39:46;8.90;99.90
59556;DHT22;45374;52.746;6.304;2023-05-15T04:42:12;9.00;99.90
59556;DHT22;45374;52.746;6.304;2023-05-15T04:44:37;9.00;99.90
59556;DHT22;45374;52.746;6.304;2023-05-15T04:47:03;9.00;99.90
59556;DHT22;45374;52.746;6.304;2023-05-15T04:49:29;9.10;99.90
59556;DHT22;45374;52.746;6.304;2023-05-15T04:51:55;9.10;99.90
59556;DHT22;45374;52.746;6.304;2023-05-15T04:54:20;9.10;99.90
59556;DHT22;45374;52.746;6.304;2023-05-15T04:56:46;9.10;99.90
59556;DHT22;45374;52.746;6.304;2023-05-15T04:59:11;9.20;99.90
59556;DHT22;45374;52.746;6.304;2023-05-15T05:01:38;9.20;99.90
59556;DHT22;45374;52.746;6.304;2023-05-15T05:04:04;9.20;99.90
59556;DHT22;45374;52.746;6.304;2023-05-15T05:06:29;9.20;99.90
59556;DHT22;45374;52.746;6.304;2023-05-15T05:08:55;9.10;99.90
59556;DHT22;45374;52.746;6.304;2023-05-15T05:11:20;9.10;99.90
59556;DHT22;45374;52.746;6.304;2023-05-15T05:13:46;9.10;99.90
59556;DHT22;45374;52.746;6.304;2023-05-15T05:16:12;9.20;99.90
59556;DHT22;45374;52.746;6.304;2023-05-15T05:18:37;9.30;99.90
59556;DHT22;45374;52.746;6.304;2023-05-15T05:21:03;9.30;99.90
59556;DHT22;45374;52.746;6.304;2023-05-15T05:23:29;9.30;99.90
59556;DHT22;45374;52.746;6.304;2023-05-15T05:25:55;9.30;99.90
59556;DHT22;45374;52.746;6.304;2023-05-15T05:28:21;9.40;99.90
59556;DHT22;45374;52.746;6.304;2023-05-15T05:30:47;9.40;99.90
59556;DHT22;45374;52.746;6.304;2023-05-15T05:33:13;9.40;99.90
59556;DHT22;45374;52.746;6.304;2023-05-15T05:35:39;9.50;99.90
59556;DHT22;45374;52.746;6.304;2023-05-15T05:38:04;9.50;99.90
59556;DHT22;45374;52.746;6.304;2023-05-15T05:40:30;9.70;99.90
59556;DHT22;45374;52.746;6.304;2023-05-15T05:43:00;9.80;99.90
59556;DHT22;45374;52.746;6.304;2023-05-15T05:45:26;9.80;99.90
59556;DHT22;45374;52.746;6.304;2023-05-15T05:47:51;9.80;99.90
59556;DHT22;45374;52.746;6.304;2023-05-15T05:50:17;9.80;99.90
59556;DHT22;45374;52.746;6.304;2023-05-15T05:52:42;9.80;99.90
59556;DHT22;45374;52.746;6.304;2023-05-15T05:55:08;9.90;99.90
59556;DHT22;45374;52.746;6.304;2023-05-15T05:57:34;9.90;99.90
59556;DHT22;45374;52.746;6.304;2023-05-15T06:00:00;9.90;99.90
59556;DHT22;45374;52.746;6.304;2023-05-15T06:02:26;10.00;99.90
59556;DHT22;45374;52.746;6.304;2023-05-15T06:04:51;10.10;99.90
59556;DHT22;45374;52.746;6.304;2023-05-15T06:07:17;10.10;99.90
59556;DHT22;45374;52.746;6.304;2023-05-15T06:09:43;10.20;99.90
59556;DHT22;45374;52.746;6.304;2023-05-15T06:12:10;10.20;99.90
59556;DHT22;45374;52.746;6.304;2023-05-15T06:14:35;10.30;99.90
59556;DHT22;45374;52.746;6.304;2023-05-15T06:17:01;10.30;99.90
59556;DHT22;45374;52.746;6.304;2023-05-15T06:19:28;10.40;99.90
59556;DHT22;45374;52.746;6.304;2023-05-15T06:21:53;10.50;99.90
59556;DHT22;45374;52.746;6.304;2023-05-15T06:24:19;10.70;99.90
59556;DHT22;45374;52.746;6.304;2023-05-15T06:26:44;10.80;99.90
59556;DHT22;45374;52.746;6.304;2023-05-15T06:29:10;10.90;99.90
59556;DHT22;45374;52.746;6.304;2023-05-15T06:31:35;10.90;99.90
59556;DHT22;45374;52.746;6.304;2023-05-15T06:34:01;11.00;99.90
59556;DHT22;45374;52.746;6.304;2023-05-15T06:36:28;11.10;99.90
59556;DHT22;45374;52.746;6.304;2023-05-15T06:38:54;11.20;99.90
59556;DHT22;45374;52.746;6.304;2023-05-15T06:41:19;11.30;99.90
59556;DHT22;45374;52.746;6.304;2023-05-15T06:43:45;11.40;99.90
59556;DHT22;45374;52.746;6.304;2023-05-15T06:46:11;11.50;99.90
59556;DHT22;45374;52.746;6.304;2023-05-15T06:48:40;11.60;99.90
59556;DHT22;45374;52.746;6.304;2023-05-15T06:51:05;11.80;99.90
59556;DHT22;45374;52.746;6.304;2023-05-15T06:53:31;11.90;99.90
59556;DHT22;45374;52.746;6.304;2023-05-15T06:55:58;12.00;99.90
59556;DHT22;45374;52.746;6.304;2023-05-15T06:58:24;12.10;99.90
59556;DHT22;45374;52.746;6.304;2023-05-15T07:00:49;12.20;99.90
59556;DHT22;45374;52.746;6.304;2023-05-15T07:03:15;12.20;99.90
59556;DHT22;45374;52.746;6.304;2023-05-15T07:05:42;12.30;99.90
59556;DHT22;45374;52.746;6.304;2023-05-15T07:08:08;12.40;99.90
59556;DHT22;45374;52.746;6.304;2023-05-15T07:10:34;12.50;99.90
59556;DHT22;45374;52.746;6.304;2023-05-15T07:12:59;12.60;99.90
59556;DHT22;45374;52.746;6.304;2023-05-15T07:15:25;12.70;99.90
59556;DHT22;45374;52.746;6.304;2023-05-15T07:17:51;12.70;99.90
59556;DHT22;45374;52.746;6.304;2023-05-15T07:20:16;12.80;99.90
59556;DHT22;45374;52.746;6.304;2023-05-15T07:22:42;12.90;99.90
59556;DHT22;45374;52.746;6.304;2023-05-15T07:25:08;12.90;99.90
59556;DHT22;45374;52.746;6.304;2023-05-15T07:27:33;12.90;99.90
59556;DHT22;45374;52.746;6.304;2023-05-15T07:30:03;13.00;99.90
59556;DHT22;45374;52.746;6.304;2023-05-15T07:32:29;13.10;99.90
59556;DHT22;45374;52.746;6.304;2023-05-15T07:34:55;13.10;99.90
59556;DHT22;45374;52.746;6.304;2023-05-15T07:37:21;13.10;99.90
59556;DHT22;45374;52.746;6.304;2023-05-15T07:39:48;13.10;99.90
59556;DHT22;45374;52.746;6.304;2023-05-15T07:42:13;13.10;99.90
59556;DHT22;45374;52.746;6.304;2023-05-15T07:44:39;13.30;99.90
59556;DHT22;45374;52.746;6.304;2023-05-15T07:47:05;13.30;99.90
59556;DHT22;45374;52.746;6.304;2023-05-15T07:49:30;13.50;99.90
59556;DHT22;45374;52.746;6.304;2023-05-15T07:51:56;13.50;99.90
59556;DHT22;45374;52.746;6.304;2023-05-15T07:54:21;13.50;99.90
59556;DHT22;45374;52.746;6.304;2023-05-15T07:56:47;13.70;99.90
59556;DHT22;45374;52.746;6.304;2023-05-15T07:59:13;13.80;99.90
59556;DHT22;45374;52.746;6.304;2023-05-15T08:01:38;14.00;99.90
59556;DHT22;45374;52.746;6.304;2023-05-15T08:04:06;14.10;99.90
59556;DHT22;45374;52.746;6.304;2023-05-15T08:06:32;14.10;99.90
59556;DHT22;45374;52.746;6.304;2023-05-15T08:08:58;14.20;99.90
59556;DHT22;45374;52.746;6.304;2023-05-15T08:11:23;14.20;99.90
59556;DHT22;45374;52.746;6.304;2023-05-15T08:13:49;14.20;99.90
59556;DHT22;45374;52.746;6.304;2023-05-15T08:16:15;14.20;99.90
59556;DHT22;45374;52.746;6.304;2023-05-15T08:18:40;14.20;99.90
59556;DHT22;45374;52.746;6.304;2023-05-15T08:21:06;14.20;99.90
59556;DHT22;45374;52.746;6.304;2023-05-15T08:23:31;14.20;99.90
59556;DHT22;45374;52.746;6.304;2023-05-15T08:25:57;14.40;99.90
59556;DHT22;45374;52.746;6.304;2023-05-15T08:28:23;14.40;99.90
59556;DHT22;45374;52.746;6.304;2023-05-15T08:30:49;14.40;99.90
59556;DHT22;45374;52.746;6.304;2023-05-15T08:33:14;14.50;99.90
59556;DHT22;45374;52.746;6.304;2023-05-15T08:35:40;14.60;99.90
59556;DHT22;45374;52.746;6.304;2023-05-15T08:38:05;14.70;99.90
59556;DHT22;45374;52.746;6.304;2023-05-15T08:40:31;14.70;99.90
59556;DHT22;45374;52.746;6.304;2023-05-15T08:43:02;14.80;99.90
59556;DHT22;45374;52.746;6.304;2023-05-15T08:45:28;14.80;99.90
59556;DHT22;45374;52.746;6.304;2023-05-15T08:47:54;15.00;99.90
59556;DHT22;45374;52.746;6.304;2023-05-15T08:50:22;15.10;99.90
59556;DHT22;45374;52.746;6.304;2023-05-15T08:52:48;15.10;99.90
59556;DHT22;45374;52.746;6.304;2023-05-15T08:55:16;15.20;99.90
59556;DHT22;45374;52.746;6.304;2023-05-15T08:57:42;15.20;99.90
59556;DHT22;45374;52.746;6.304;2023-05-15T09:00:09;15.20;99.90
59556;DHT22;45374;52.746;6.304;2023-05-15T09:02:39;15.20;99.90
59556;DHT22;45374;52.746;6.304;2023-05-15T09:05:05;15.30;99.90
59556;DHT22;45374;52.746;6.304;2023-05-15T09:07:31;15.40;99.90
59556;DHT22;45374;52.746;6.304;2023-05-15T09:09:58;15.40;99.90
59556;DHT22;45374;52.746;6.304;2023-05-15T09:12:25;15.50;99.90
59556;DHT22;45374;52.746;6.304;2023-05-15T09:14:58;15.60;99.90
59556;DHT22;45374;52.746;6.304;2023-05-15T09:17:32;15.60;99.90
59556;DHT22;45374;52.746;6.304;2023-05-15T09:19:57;15.70;99.90
59556;DHT22;45374;52.746;6.304;2023-05-15T09:22:23;15.70;99.90
59556;DHT22;45374;52.746;6.304;2023-05-15T09:24:51;15.80;99.90
59556;DHT22;45374;52.746;6.304;2023-05-15T09:27:18;15.80;99.90
59556;DHT22;45374;52.746;6.304;2023-05-15T09:29:44;15.80;99.90
59556;DHT22;45374;52.746;6.304;2023-05-15T09:32:12;15.90;99.90
59556;DHT22;45374;52.746;6.304;2023-05-15T09:34:40;16.00;99.90
59556;DHT22;45374;52.746;6.304;2023-05-15T09:37:11;16.00;99.90
59556;DHT22;45374;52.746;6.304;2023-05-15T09:39:41;16.10;99.90
59556;DHT22;45374;52.746;6.304;2023-05-15T09:42:11;16.10;99.90
59556;DHT22;45374;52.746;6.304;2023-05-15T09:44:42;16.10;99.90
59556;DHT22;45374;52.746;6.304;2023-05-15T09:47:09;16.20;99.90
59556;DHT22;45374;52.746;6.304;2023-05-15T09:49:35;16.40;99.90
59556;DHT22;45374;52.746;6.304;2023-05-15T09:52:01;16.30;99.90
59556;DHT22;45374;52.746;6.304;2023-05-15T09:54:27;16.20;99.90
59556;DHT22;45374;52.746;6.304;2023-05-15T09:56:54;16.20;99.90
59556;DHT22;45374;52.746;6.304;2023-05-15T09:59:20;16.20;99.90
59556;DHT22;45374;52.746;6.304;2023-05-15T10:01:49;16.40;99.90
59556;DHT22;45374;52.746;6.304;2023-05-15T10:04:15;16.50;99.90
59556;DHT22;45374;52.746;6.304;2023-05-15T10:06:43;16.70;99.90
59556;DHT22;45374;52.746;6.304;2023-05-15T10:09:09;16.60;99.90
59556;DHT22;45374;52.746;6.304;2023-05-15T10:11:37;16.80;99.90
59556;DHT22;45374;52.746;6.304;2023-05-15T10:14:05;16.80;99.90
59556;DHT22;45374;52.746;6.304;2023-05-15T10:16:33;16.90;99.90
59556;DHT22;45374;52.746;6.304;2023-05-15T10:19:03;17.00;99.90
59556;DHT22;45374;52.746;6.304;2023-05-15T10:21:40;17.00;99.90
59556;DHT22;45374;52.746;6.304;2023-05-15T10:24:06;17.10;99.90
59556;DHT22;45374;52.746;6.304;2023-05-15T10:26:37;17.10;99.90
59556;DHT22;45374;52.746;6.304;2023-05-15T10:29:09;17.30;99.90
59556;DHT22;45374;52.746;6.304;2023-05-15T10:31:35;17.30;99.90
59556;DHT22;45374;52.746;6.304;2023-05-15T10:34:02;17.40;99.90
59556;DHT22;45374;52.746;6.304;2023-05-15T10:36:29;17.40;99.90
59556;DHT22;45374;52.746;6.304;2023-05-15T10:38:57;17.40;99.90
59556;DHT22;45374;52.746;6.304;2023-05-15T10:41:23;17.40;99.90
59556;DHT22;45374;52.746;6.304;2023-05-15T10:43:52;17.30;99.90
59556;DHT22;45374;52.746;6.304;2023-05-15T10:46:18;17.20;99.90
59556;DHT22;45374;52.746;6.304;2023-05-15T10:48:43;17.10;99.90
59556;DHT22;45374;52.746;6.304;2023-05-15T10:51:16;17.10;99.90
59556;DHT22;45374;52.746;6.304;2023-05-15T10:53:44;17.00;99.90
59556;DHT22;45374;52.746;6.304;2023-05-15T10:56:16;17.10;99.90
59556;DHT22;45374;52.746;6.304;2023-05-15T10:58:46;17.20;99.90
59556;DHT22;45374;52.746;6.304;2023-05-15T11:01:32;17.30;99.90
59556;DHT22;45374;52.746;6.304;2023-05-15T11:06:34;17.30;99.90
59556;DHT22;45374;52.746;6.304;2023-05-15T11:12:01;17.30;99.90
59556;DHT22;45374;52.746;6.304;2023-05-15T11:14:28;17.30;99.90
59556;DHT22;45374;52.746;6.304;2023-05-15T11:21:56;17.30;99.90
59556;DHT22;45374;52.746;6.304;2023-05-15T11:24:27;17.40;99.90
59556;DHT22;45374;52.746;6.304;2023-05-15T11:27:00;17.30;99.90
59556;DHT22;45374;52.746;6.304;2023-05-15T11:29:26;17.40;99.90
59556;DHT22;45374;52.746;6.304;2023-05-15T11:31:52;17.30;99.90
59556;DHT22;45374;52.746;6.304;2023-05-15T11:34:31;17.40;99.90
59556;DHT22;45374;52.746;6.304;2023-05-15T11:36:58;17.40;99.90
59556;DHT22;45374;52.746;6.304;2023-05-15T11:39:24;17.40;99.90
59556;DHT22;45374;52.746;6.304;2023-05-15T11:41:50;17.60;99.90
59556;DHT22;45374;52.746;6.304;2023-05-15T11:44:23;17.70;99.90
59556;DHT22;45374;52.746;6.304;2023-05-15T11:46:49;17.80;99.90
59556;DHT22;45374;52.746;6.304;2023-05-15T11:49:19;17.70;99.90
59556;DHT22;45374;52.746;6.304;2023-05-15T11:51:47;17.60;99.90
59556;DHT22;45374;52.746;6.304;2023-05-15T11:54:13;17.70;99.90
59556;DHT22;45374;52.746;6.304;2023-05-15T11:56:42;17.90;99.90
59556;DHT22;45374;52.746;6.304;2023-05-15T11:59:13;18.10;99.90
59556;DHT22;45374;52.746;6.304;2023-05-15T12:01:43;18.10;99.90
59556;DHT22;45374;52.746;6.304;2023-05-15T12:04:16;17.90;99.90
59556;DHT22;45374;52.746;6.304;2023-05-15T12:06:42;17.70;99.90
59556;DHT22;45374;52.746;6.304;2023-05-15T12:09:15;17.60;99.90
59556;DHT22;45374;52.746;6.304;2023-05-15T12:11:48;17.60;99.90
59556;DHT22;45374;52.746;6.304;2023-05-15T12:14:14;17.50;99.90
59556;DHT22;45374;52.746;6.304;2023-05-15T12:16:40;17.30;99.90
59556;DHT22;45374;52.746;6.304;2023-05-15T12:19:06;17.20;99.90
59556;DHT22;45374;52.746;6.304;2023-05-15T12:21:32;17.30;99.90
59556;DHT22;45374;52.746;6.304;2023-05-15T12:23:57;17.30;99.90
59556;DHT22;45374;52.746;6.304;2023-05-15T12:26:24;17.50;99.90
59556;DHT22;45374;52.746;6.304;2023-05-15T12:28:50;17.60;99.90
59556;DHT22;45374;52.746;6.304;2023-05-15T12:31:17;17.80;99.90
59556;DHT22;45374;52.746;6.304;2023-05-15T12:33:43;17.80;99.90
59556;DHT22;45374;52.746;6.304;2023-05-15T12:36:10;17.90;99.90
59556;DHT22;45374;52.746;6.304;2023-05-15T12:38:36;17.80;99.90
59556;DHT22;45374;52.746;6.304;2023-05-15T12:41:01;17.80;99.90
59556;DHT22;45374;52.746;6.304;2023-05-15T12:43:27;17.90;99.90
59556;DHT22;45374;52.746;6.304;2023-05-15T12:45:55;17.90;99.90
59556;DHT22;45374;52.746;6.304;2023-05-15T12:48:21;17.80;99.90
59556;DHT22;45374;52.746;6.304;2023-05-15T12:50:47;17.80;99.90
59556;DHT22;45374;52.746;6.304;2023-05-15T12:53:15;17.80;99.90
59556;DHT22;45374;52.746;6.304;2023-05-15T12:55:42;17.70;99.90
59556;DHT22;45374;52.746;6.304;2023-05-15T12:58:12;17.90;99.90
59556;DHT22;45374;52.746;6.304;2023-05-15T13:00:43;18.00;99.90
59556;DHT22;45374;52.746;6.304;2023-05-15T13:03:11;18.10;99.90
59556;DHT22;45374;52.746;6.304;2023-05-15T13:05:38;18.20;99.90
59556;DHT22;45374;52.746;6.304;2023-05-15T13:08:05;18.00;99.90
59556;DHT22;45374;52.746;6.304;2023-05-15T13:10:33;17.70;99.90
59556;DHT22;45374;52.746;6.304;2023-05-15T13:12:59;17.70;99.90
59556;DHT22;45374;52.746;6.304;2023-05-15T13:15:35;17.40;99.90
59556;DHT22;45374;52.746;6.304;2023-05-15T13:18:05;17.20;99.90
59556;DHT22;45374;52.746;6.304;2023-05-15T13:20:35;17.20;99.90
59556;DHT22;45374;52.746;6.304;2023-05-15T13:23:01;17.40;99.90
59556;DHT22;45374;52.746;6.304;2023-05-15T13:25:27;17.30;99.90
59556;DHT22;45374;52.746;6.304;2023-05-15T13:27:56;17.20;99.90
59556;DHT22;45374;52.746;6.304;2023-05-15T13:30:22;17.20;99.90
59556;DHT22;45374;52.746;6.304;2023-05-15T13:32:48;17.10;99.90
59556;DHT22;45374;52.746;6.304;2023-05-15T13:35:13;17.00;99.90
59556;DHT22;45374;52.746;6.304;2023-05-15T13:37:39;16.80;99.90
59556;DHT22;45374;52.746;6.304;2023-05-15T13:40:08;16.70;99.90
59556;DHT22;45374;52.746;6.304;2023-05-15T13:42:38;16.50;99.90
59556;DHT22;45374;52.746;6.304;2023-05-15T13:45:06;16.50;99.90
59556;DHT22;45374;52.746;6.304;2023-05-15T13:47:32;16.40;99.90
59556;DHT22;45374;52.746;6.304;2023-05-15T13:49:58;16.40;99.90
59556;DHT22;45374;52.746;6.304;2023-05-15T13:52:24;16.30;99.90
59556;DHT22;45374;52.746;6.304;2023-05-15T13:54:50;16.30;99.90
59556;DHT22;45374;52.746;6.304;2023-05-15T13:57:17;16.20;99.90
59556;DHT22;45374;52.746;6.304;2023-05-15T13:59:42;16.20;99.90
59556;DHT22;45374;52.746;6.304;2023-05-15T14:02:08;16.20;99.90
59556;DHT22;45374;52.746;6.304;2023-05-15T14:04:33;16.20;99.90
59556;DHT22;45374;52.746;6.304;2023-05-15T14:06:59;16.20;99.90
59556;DHT22;45374;52.746;6.304;2023-05-15T14:09:25;16.10;99.90
59556;DHT22;45374;52.746;6.304;2023-05-15T14:11:51;16.00;99.90
59556;DHT22;45374;52.746;6.304;2023-05-15T14:14:16;16.10;99.90
59556;DHT22;45374;52.746;6.304;2023-05-15T14:16:42;16.10;99.90
59556;DHT22;45374;52.746;6.304;2023-05-15T14:19:07;16.20;99.90
59556;DHT22;45374;52.746;6.304;2023-05-15T14:21:33;16.20;99.90
59556;DHT22;45374;52.746;6.304;2023-05-15T14:23:58;16.20;99.90
59556;DHT22;45374;52.746;6.304;2023-05-15T14:26:24;16.20;99.90
59556;DHT22;45374;52.746;6.304;2023-05-15T14:28:50;16.10;99.90
59556;DHT22;45374;52.746;6.304;2023-05-15T14:31:15;16.00;99.90
59556;DHT22;45374;52.746;6.304;2023-05-15T14:33:41;15.90;99.90
59556;DHT22;45374;52.746;6.304;2023-05-15T14:36:07;15.80;99.90
59556;DHT22;45374;52.746;6.304;2023-05-15T14:38:32;15.60;99.90
59556;DHT22;45374;52.746;6.304;2023-05-15T14:40:58;15.60;99.90
59556;DHT22;45374;52.746;6.304;2023-05-15T14:43:24;15.50;99.90
59556;DHT22;45374;52.746;6.304;2023-05-15T14:45:50;15.50;99.90
59556;DHT22;45374;52.746;6.304;2023-05-15T14:48:16;15.30;99.90
59556;DHT22;45374;52.746;6.304;2023-05-15T14:50:41;15.20;99.90
59556;DHT22;45374;52.746;6.304;2023-05-15T14:53:07;15.20;99.90
59556;DHT22;45374;52.746;6.304;2023-05-15T14:55:33;15.20;99.90
59556;DHT22;45374;52.746;6.304;2023-05-15T14:57:58;15.10;99.90
59556;DHT22;45374;52.746;6.304;2023-05-15T15:00:25;15.10;99.90
59556;DHT22;45374;52.746;6.304;2023-05-15T15:02:50;15.10;99.90
59556;DHT22;45374;52.746;6.304;2023-05-15T15:05:16;15.10;99.90
59556;DHT22;45374;52.746;6.304;2023-05-15T15:08:12;15.20;99.90
59556;DHT22;45374;52.746;6.304;2023-05-15T15:10:39;15.10;99.90
59556;DHT22;45374;52.746;6.304;2023-05-15T15:13:06;15.10;99.90
59556;DHT22;45374;52.746;6.304;2023-05-15T15:15:33;15.10;99.90
59556;DHT22;45374;52.746;6.304;2023-05-15T15:17:59;15.10;99.90
59556;DHT22;45374;52.746;6.304;2023-05-15T15:20:25;15.10;99.90
59556;DHT22;45374;52.746;6.304;2023-05-15T15:22:52;15.00;99.90
59556;DHT22;45374;52.746;6.304;2023-05-15T15:25:18;15.00;99.90
59556;DHT22;45374;52.746;6.304;2023-05-15T15:27:44;15.00;99.90
59556;DHT22;45374;52.746;6.304;2023-05-15T15:30:11;15.00;99.90
59556;DHT22;45374;52.746;6.304;2023-05-15T15:32:37;15.00;99.90
59556;DHT22;45374;52.746;6.304;2023-05-15T15:35:04;14.90;99.90
59556;DHT22;45374;52.746;6.304;2023-05-15T15:37:30;14.90;99.90
59556;DHT22;45374;52.746;6.304;2023-05-15T15:39:57;14.90;99.90
59556;DHT22;45374;52.746;6.304;2023-05-15T15:42:23;14.90;99.90
59556;DHT22;45374;52.746;6.304;2023-05-15T15:44:49;14.90;99.90
59556;DHT22;45374;52.746;6.304;2023-05-15T15:47:14;14.80;99.90
59556;DHT22;45374;52.746;6.304;2023-05-15T15:49:40;14.70;99.90
59556;DHT22;45374;52.746;6.304;2023-05-15T15:52:08;14.60;99.90
59556;DHT22;45374;52.746;6.304;2023-05-15T15:54:35;14.60;99.90
59556;DHT22;45374;52.746;6.304;2023-05-15T15:57:01;14.60;99.90